Time;durP1;ratioP1;P1;durP2;ratioP2;P2;SDS_P1;SDS_P2;PMS_P1;PMS_P2;Temp;Humidity;BMP_temperature;BMP_pressure;BME280_temperature;BME280_humidity;BME280_pressure;Samples;Min_cycle;Max_cycle;Signal;HPM_P1;HPM_P2
2022/10/16 00:01:44;;;;;;;15.57;5.53;;;;;;;31.02;19.83;100297.31;5038505;28;20438;-74
2022/10/16 00:04:13;;;;;;;9.18;5.45;;;;;;;30.96;20.39;100296.84;5042041;28;20048;-75
2022/10/16 00:06:41;;;;;;;9.07;5.47;;;;;;;30.88;20.43;100290.19;5045266;28;20495;-74
2022/10/16 00:09:12;;;;;;;9.70;5.55;;;;;;;30.83;21.90;100291.38;5044674;28;20407;-74
2022/10/16 00:11:42;;;;;;;7.93;5.30;;;;;;;30.74;20.84;100286.59;5040031;28;20041;-74
2022/10/16 00:14:12;;;;;;;6.85;5.60;;;;;;;30.65;21.32;100283.56;5041632;28;20402;-74
2022/10/16 00:16:41;;;;;;;10.48;5.43;;;;;;;30.56;21.10;100278.78;5040598;28;20402;-74
2022/10/16 00:19:12;;;;;;;8.98;5.40;;;;;;;30.49;21.19;100285.47;5036188;28;20056;-74
2022/10/16 00:21:41;;;;;;;9.00;5.65;;;;;;;30.41;20.76;100290.41;5046224;28;20041;-74
2022/10/16 00:24:12;;;;;;;9.00;5.38;;;;;;;30.34;21.48;100291.72;5039153;28;20442;-73
2022/10/16 00:26:41;;;;;;;8.33;5.77;;;;;;;30.25;21.68;100288.63;5045029;28;20483;-74
2022/10/16 00:29:10;;;;;;;9.63;5.53;;;;;;;30.16;21.31;100294.50;5045159;28;20041;-73
2022/10/16 00:31:39;;;;;;;9.30;6.25;;;;;;;30.06;21.34;100290.69;5046259;28;20534;-74
2022/10/16 00:34:07;;;;;;;10.90;6.63;;;;;;;29.97;20.86;100291.22;5047487;28;20118;-73
2022/10/16 00:36:36;;;;;;;9.70;6.25;;;;;;;29.88;20.64;100284.63;5043784;28;20046;-74
2022/10/16 00:39:14;;;;;;;12.43;6.90;;;;;;;29.78;21.06;100284.31;5017750;28;20648;-74
2022/10/16 00:41:43;;;;;;;10.90;6.55;;;;;;;29.69;20.24;100292.84;5046799;28;20052;-74
2022/10/16 00:44:45;;;;;;;12.38;6.90;;;;;;;29.60;20.59;100288.84;5047321;28;20049;-74
2022/10/16 00:47:19;;;;;;;12.15;6.88;;;;;;;29.52;20.90;100290.22;5040198;28;20044;-73
2022/10/16 00:49:49;;;;;;;10.40;6.03;;;;;;;29.44;21.61;100288.88;5047243;28;20049;-74
2022/10/16 00:52:19;;;;;;;13.55;6.07;;;;;;;29.34;21.63;100281.47;5047628;28;20600;-74
2022/10/16 00:54:58;;;;;;;8.43;5.80;;;;;;;29.24;21.95;100286.47;5045268;28;20064;-74
2022/10/16 00:57:26;;;;;;;9.73;5.70;;;;;;;29.14;21.98;100295.91;5046990;28;20052;-74
2022/10/16 00:59:56;;;;;;;13.80;5.82;;;;;;;29.04;22.04;100288.38;5065907;28;20531;-74
2022/10/16 01:02:24;;;;;;;8.90;5.68;;;;;;;28.94;22.09;100284.50;5063969;28;20048;-73
2022/10/16 01:04:55;;;;;;;10.82;5.60;;;;;;;28.83;22.55;100287.75;5065737;28;20490;-74
2022/10/16 01:07:35;;;;;;;8.10;5.70;;;;;;;28.70;22.73;100281.38;5064822;28;20401;-74
2022/10/16 01:10:25;;;;;;;8.95;5.60;;;;;;;28.57;22.82;100286.47;5053529;28;20041;-74
2022/10/16 01:13:00;;;;;;;9.68;5.70;;;;;;;28.46;23.00;100286.16;5059579;28;20036;-74
2022/10/16 01:15:35;;;;;;;10.30;5.72;;;;;;;28.35;22.89;100285.84;5061664;28;20056;-74
2022/10/16 01:18:10;;;;;;;12.48;5.40;;;;;;;28.26;23.23;100286.31;5066735;28;20044;-74
2022/10/16 01:20:45;;;;;;;9.98;5.75;;;;;;;28.13;23.63;100286.09;5053228;28;20406;-74
2022/10/16 01:23:27;;;;;;;10.65;5.22;;;;;;;28.00;23.90;100291.19;5062368;28;20049;-73
2022/10/16 01:26:12;;;;;;;8.63;5.63;;;;;;;27.87;24.07;100285.59;5052974;28;21163;-75
2022/10/16 01:28:48;;;;;;;8.70;5.80;;;;;;;27.74;23.95;100292.44;5050944;28;20040;-74
2022/10/16 01:31:22;;;;;;;8.13;5.40;;;;;;;27.63;24.20;100292.97;5066227;28;20066;-73
2022/10/16 01:34:00;;;;;;;10.10;5.43;;;;;;;27.53;24.53;100297.00;5057340;28;20614;-73
2022/10/16 01:36:35;;;;;;;11.13;6.30;;;;;;;27.40;24.95;100287.88;5063382;28;20045;-73
2022/10/16 01:39:05;;;;;;;11.63;5.97;;;;;;;27.31;24.97;100291.88;5052182;28;20053;-73
2022/10/16 01:41:36;;;;;;;8.73;5.95;;;;;;;27.21;24.76;100298.53;5059884;28;20044;-74
2022/10/16 01:44:11;;;;;;;10.35;5.65;;;;;;;27.09;25.17;100303.44;5055670;28;20048;-74
2022/10/16 01:46:43;;;;;;;6.55;4.82;;;;;;;26.98;25.59;100302.22;5054467;28;20930;-74
2022/10/16 01:49:12;;;;;;;;;;;;;;;26.88;25.77;100304.44;5061052;28;20400;-74
2022/10/16 01:51:41;;;;;;;10.85;7.00;;;;;;;26.75;26.21;100314.75;5053071;28;20503;-74
2022/10/16 01:54:18;;;;;;;17.33;9.60;;;;;;;26.63;26.44;100308.19;5051062;28;20054;-73
2022/10/16 01:56:50;;;;;;;10.38;7.38;;;;;;;26.53;26.83;100315.66;5061105;28;20081;-73
2022/10/16 01:59:23;;;;;;;12.63;7.15;;;;;;;26.41;26.91;100316.22;5050328;28;20053;-74
2022/10/16 02:01:56;;;;;;;11.70;6.72;;;;;;;26.29;26.57;100322.88;5059129;28;20388;-74
2022/10/16 02:04:29;;;;;;;9.52;6.35;;;;;;;26.17;27.29;100327.88;5064975;28;20044;-72
2022/10/16 02:06:58;;;;;;;10.63;6.35;;;;;;;26.02;26.78;100324.03;5057580;28;20048;-74
2022/10/16 02:09:27;;;;;;;8.98;6.45;;;;;;;25.91;27.49;100328.03;5053818;28;20045;-74
2022/10/16 02:11:58;;;;;;;9.80;6.00;;;;;;;25.81;27.77;100331.06;5061354;28;20502;-74
2022/10/16 02:14:29;;;;;;;8.65;5.97;;;;;;;25.70;27.24;100337.66;5051216;28;20049;-73
2022/10/16 02:16:57;;;;;;;10.63;6.15;;;;;;;25.58;27.47;100335.50;5053492;28;20053;-75
2022/10/16 02:19:26;;;;;;;9.23;6.40;;;;;;;25.47;27.54;100332.38;5067628;28;20044;-74
2022/10/16 02:21:57;;;;;;;8.48;6.30;;;;;;;25.37;28.05;100341.63;5064897;28;20506;-73
2022/10/16 02:24:33;;;;;;;8.98;6.10;;;;;;;25.24;27.77;100341.22;5063247;28;20055;-74
2022/10/16 02:27:08;;;;;;;10.95;5.95;;;;;;;25.15;27.90;100346.84;5054200;28;20041;-74
2022/10/16 02:29:44;;;;;;;8.40;6.00;;;;;;;25.05;27.68;100339.22;5058209;28;20549;-71
2022/10/16 02:32:17;;;;;;;10.02;6.35;;;;;;;24.95;27.73;100347.59;5064790;28;20036;-73
2022/10/16 02:34:47;;;;;;;11.52;6.65;;;;;;;24.87;27.94;100351.34;5060471;28;20483;-74
2022/10/16 02:37:16;;;;;;;11.05;6.97;;;;;;;24.79;27.39;100350.78;5060045;28;20052;-74
2022/10/16 02:39:45;;;;;;;8.68;6.13;;;;;;;24.74;27.90;100355.38;5060699;28;20052;-73
2022/10/16 02:42:14;;;;;;;10.70;6.80;;;;;;;24.68;28.15;100358.25;5065731;28;20037;-74
2022/10/16 02:44:44;;;;;;;10.27;6.25;;;;;;;24.64;27.06;100351.31;5063779;28;20040;-74
2022/10/16 02:47:13;;;;;;;9.43;6.60;;;;;;;24.62;27.37;100355.78;5068077;28;20043;-73
2022/10/16 02:49:42;;;;;;;11.32;6.68;;;;;;;24.60;27.66;100360.28;5070356;28;20486;-73
2022/10/16 02:52:10;;;;;;;13.45;6.78;;;;;;;24.58;27.03;100364.75;5060510;28;20557;-72
2022/10/16 02:54:39;;;;;;;9.50;6.85;;;;;;;24.54;27.10;100366.66;5063424;28;20052;-74
2022/10/16 02:57:08;;;;;;;10.05;6.28;;;;;;;24.49;27.08;100362.41;5063952;28;20048;-73
2022/10/16 02:59:36;;;;;;;10.55;6.53;;;;;;;24.45;27.08;100373.09;5061895;28;20041;-76
2022/10/16 03:02:06;;;;;;;14.43;7.45;;;;;;;24.40;27.35;100372.38;5069000;28;20036;-75
2022/10/16 03:04:35;;;;;;;10.05;6.40;;;;;;;24.38;27.35;100370.72;5063868;28;20097;-74
2022/10/16 03:07:04;;;;;;;9.18;6.28;;;;;;;24.34;27.16;100375.22;5070291;28;20047;-72
2022/10/16 03:09:32;;;;;;;9.52;6.03;;;;;;;24.29;27.17;100371.88;5057184;28;20590;-72
2022/10/16 03:12:01;;;;;;;10.07;5.90;;;;;;;24.27;29.08;100373.72;5069029;28;20056;-74
2022/10/16 03:14:29;;;;;;;10.75;6.47;;;;;;;24.21;27.62;100374.78;5067421;28;20131;-73
2022/10/16 03:16:58;;;;;;;7.05;5.40;;;;;;;24.19;27.19;100375.72;5064808;28;20066;-73
2022/10/16 03:19:28;;;;;;;9.85;5.55;;;;;;;24.18;27.07;100379.31;5071140;28;20044;-75
2022/10/16 03:21:57;;;;;;;10.07;6.38;;;;;;;24.15;28.37;100379.41;5058554;28;20060;-75
2022/10/16 03:24:25;;;;;;;9.55;6.05;;;;;;;24.12;27.07;100374.19;5067418;28;20041;-74
2022/10/16 03:26:54;;;;;;;9.95;6.05;;;;;;;24.08;28.09;100365.53;5060545;28;20508;-75
2022/10/16 03:29:22;;;;;;;10.82;6.45;;;;;;;24.03;28.00;100376.25;5068731;28;20697;-74
2022/10/16 03:31:51;;;;;;;10.52;6.15;;;;;;;23.98;28.36;100375.53;5066935;28;20056;-73
2022/10/16 03:34:19;;;;;;;11.25;6.07;;;;;;;23.95;28.39;100375.63;5061807;28;20048;-73
2022/10/16 03:36:50;;;;;;;8.32;5.43;;;;;;;23.89;28.07;100372.31;5068307;28;20501;-73
2022/10/16 03:39:19;;;;;;;9.15;5.70;;;;;;;23.86;28.16;100372.41;5058210;28;20055;-73
2022/10/16 03:41:47;;;;;;;11.07;6.00;;;;;;;23.83;28.15;100378.66;5068911;28;20047;-74
2022/10/16 03:44:16;;;;;;;8.70;6.18;;;;;;;23.79;27.88;100382.31;5067396;28;20051;-74
2022/10/16 03:46:45;;;;;;;9.15;6.03;;;;;;;23.75;28.32;100380.66;5069139;28;20513;-72
2022/10/16 03:49:13;;;;;;;8.00;5.45;;;;;;;23.70;28.28;100388.69;5062007;28;20048;-72
2022/10/16 03:51:42;;;;;;;9.52;5.85;;;;;;;23.65;28.04;100389.75;5063401;28;20053;-73
2022/10/16 03:54:13;;;;;;;9.63;5.88;;;;;;;23.60;28.09;100400.47;5061742;28;20551;-74
2022/10/16 03:56:42;;;;;;;9.25;5.70;;;;;;;23.57;28.30;100404.06;5061426;28;20423;-73
2022/10/16 03:59:11;;;;;;;11.13;6.35;;;;;;;23.53;28.29;100397.13;5067046;28;20076;-74
2022/10/16 04:01:39;;;;;;;9.55;5.63;;;;;;;23.49;28.28;100398.13;5056853;28;20053;-73
2022/10/16 04:04:08;;;;;;;9.73;5.80;;;;;;;23.48;28.40;100392.88;5066005;28;20084;-73
2022/10/16 04:06:37;;;;;;;8.70;5.75;;;;;;;23.48;28.79;100399.06;5067116;28;20106;-74
2022/10/16 04:09:06;;;;;;;11.32;5.88;;;;;;;23.43;29.13;100414.16;5063801;28;20053;-72
2022/10/16 04:11:37;;;;;;;9.57;5.80;;;;;;;23.38;28.29;100409.00;5063425;28;20047;-73
2022/10/16 04:14:05;;;;;;;9.68;5.50;;;;;;;23.34;28.70;100403.84;5066326;28;20123;-73
2022/10/16 04:16:34;;;;;;;9.77;5.85;;;;;;;23.30;28.60;100411.00;5064342;28;20068;-72
2022/10/16 04:19:03;;;;;;;10.88;6.03;;;;;;;23.25;29.31;100412.03;5064052;28;20041;-71
2022/10/16 04:21:32;;;;;;;7.47;5.20;;;;;;;23.22;28.63;100407.72;5065000;28;20047;-73
2022/10/16 04:24:01;;;;;;;10.52;5.47;;;;;;;23.18;28.90;100406.94;5064179;28;20481;-73
2022/10/16 04:26:30;;;;;;;8.38;5.80;;;;;;;23.14;29.28;100412.38;5063201;28;20048;-73
2022/10/16 04:29:00;;;;;;;9.25;5.60;;;;;;;23.07;29.43;100416.94;5057690;28;20409;-74
2022/10/16 04:31:29;;;;;;;10.65;5.43;;;;;;;23.03;29.10;100411.78;5065234;28;20045;-75
2022/10/16 04:33:58;;;;;;;8.43;5.88;;;;;;;23.00;29.54;100412.75;5051236;28;20067;-74
2022/10/16 04:36:27;;;;;;;8.52;5.63;;;;;;;22.95;29.65;100419.84;5053831;28;20576;-73
2022/10/16 04:38:56;;;;;;;9.07;5.72;;;;;;;22.89;29.88;100420.91;5066608;28;20076;-73
2022/10/16 04:41:25;;;;;;;8.73;5.57;;;;;;;22.87;29.96;100421.84;5068442;28;20086;-72
2022/10/16 04:43:54;;;;;;;10.60;5.85;;;;;;;22.82;29.96;100418.47;5066901;28;20131;-72
2022/10/16 04:46:24;;;;;;;8.45;6.30;;;;;;;22.82;29.83;100415.84;5053743;28;20490;-72
2022/10/16 04:48:53;;;;;;;9.73;5.07;;;;;;;22.80;29.99;100416.72;5051021;28;20512;-74
2022/10/16 04:51:22;;;;;;;10.50;6.18;;;;;;;22.78;29.89;100423.81;5055483;28;20145;-72
2022/10/16 04:53:51;;;;;;;9.23;5.38;;;;;;;22.75;30.63;100429.19;5065408;28;20055;-74
2022/10/16 04:56:27;;;;;;;9.02;5.47;;;;;;;22.71;29.95;100432.78;5064933;28;20131;-74
2022/10/16 04:58:55;;;;;;;9.70;5.45;;;;;;;22.68;30.17;100432.88;5061323;28;20600;-74
2022/10/16 05:01:26;;;;;;;8.55;5.90;;;;;;;22.65;30.43;100435.59;5065932;28;20576;-74
2022/10/16 05:03:55;;;;;;;8.25;5.55;;;;;;;22.60;30.34;100440.13;5068537;28;20614;-73
2022/10/16 05:06:24;;;;;;;10.15;5.72;;;;;;;22.56;30.56;100439.34;5060526;28;20405;-74
2022/10/16 05:08:53;;;;;;;10.43;6.07;;;;;;;22.53;30.29;100439.41;5061967;28;20052;-72
2022/10/16 05:11:22;;;;;;;8.55;5.78;;;;;;;22.50;30.64;100443.91;5067160;28;20494;-72
2022/10/16 05:13:50;;;;;;;11.75;5.97;;;;;;;22.47;30.78;100438.69;5065236;28;20049;-72
2022/10/16 05:16:19;;;;;;;9.85;5.72;;;;;;;22.42;31.33;100441.44;5062410;28;20049;-74
2022/10/16 05:18:49;;;;;;;8.70;5.65;;;;;;;22.39;31.42;100441.53;5057491;28;20052;-74
2022/10/16 05:21:18;;;;;;;14.05;5.93;;;;;;;22.35;31.74;100443.34;5066988;28;20036;-74
2022/10/16 05:23:47;;;;;;;10.88;6.10;;;;;;;22.31;31.92;100443.47;5061333;28;20139;-72
2022/10/16 05:26:15;;;;;;;10.48;5.45;;;;;;;22.23;32.39;100445.44;5051766;28;20045;-73
2022/10/16 05:28:44;;;;;;;9.05;5.45;;;;;;;22.18;32.04;100442.88;5061257;28;20671;-73
2022/10/16 05:31:13;;;;;;;9.77;5.35;;;;;;;22.15;32.41;100433.28;5058334;28;20055;-74
2022/10/16 05:33:42;;;;;;;7.35;4.80;;;;;;;22.11;32.49;100442.16;5053907;28;20051;-73
2022/10/16 05:36:13;;;;;;;9.20;5.47;;;;;;;22.05;32.66;100439.63;5052016;28;20137;-75
2022/10/16 05:38:41;;;;;;;9.13;5.38;;;;;;;22.03;31.84;100443.22;5068848;28;20052;-74
2022/10/16 05:41:10;;;;;;;9.25;5.95;;;;;;;22.01;32.27;100442.38;5054974;28;20498;-75
2022/10/16 05:43:38;;;;;;;9.98;5.95;;;;;;;22.00;32.61;100440.66;5067202;28;20125;-74
2022/10/16 05:46:07;;;;;;;11.38;5.40;;;;;;;21.94;32.67;100434.63;5066015;28;20045;-73
2022/10/16 05:48:36;;;;;;;8.57;5.72;;;;;;;21.91;33.09;100439.09;5057407;28;20052;-73
2022/10/16 05:51:07;;;;;;;8.48;5.50;;;;;;;21.82;32.56;100440.16;5062900;28;20040;-74
2022/10/16 05:53:39;;;;;;;9.20;5.32;;;;;;;21.82;32.66;100440.16;5067190;28;20040;-74
2022/10/16 05:56:10;;;;;;;12.70;5.63;;;;;;;21.79;32.57;100429.69;5071870;28;20053;-73
2022/10/16 05:58:40;;;;;;;7.68;5.60;;;;;;;21.78;32.84;100433.22;5066682;28;20044;-74
2022/10/16 06:01:11;;;;;;;12.15;5.32;;;;;;;21.72;33.43;100438.63;5053286;28;20056;-74
2022/10/16 06:03:40;;;;;;;9.18;5.72;;;;;;;21.67;33.78;100440.47;5057931;28;20036;-72
2022/10/16 06:06:13;;;;;;;8.65;5.38;;;;;;;21.58;34.25;100436.28;5063773;28;20494;-72
2022/10/16 06:08:45;;;;;;;9.10;5.13;;;;;;;21.52;33.96;100445.19;5060365;28;20049;-73
2022/10/16 06:11:15;;;;;;;10.02;5.50;;;;;;;21.49;34.47;100445.25;5052381;28;20045;-73
2022/10/16 06:13:45;;;;;;;10.52;6.03;;;;;;;21.44;34.42;100447.13;5062746;28;20056;-74
2022/10/16 06:16:14;;;;;;;11.93;5.90;;;;;;;21.42;34.07;100446.28;5063543;28;20040;-74
2022/10/16 06:18:43;;;;;;;11.00;5.32;;;;;;;21.37;34.57;100450.72;5060729;28;20410;-74
2022/10/16 06:21:14;;;;;;;11.07;5.63;;;;;;;21.32;34.56;100436.78;5063870;28;20414;-74
2022/10/16 06:23:45;;;;;;;9.10;5.38;;;;;;;21.28;34.97;100448.25;5072113;28;20051;-74
2022/10/16 06:26:16;;;;;;;7.63;5.23;;;;;;;21.23;34.65;100445.72;5053789;28;20111;-73
2022/10/16 06:28:44;;;;;;;10.18;5.28;;;;;;;21.19;34.72;100443.16;5065336;28;20281;-73
2022/10/16 06:31:14;;;;;;;9.95;5.70;;;;;;;21.16;34.63;100443.25;5070371;28;20051;-74
2022/10/16 06:33:43;;;;;;;10.98;5.80;;;;;;;21.13;34.58;100447.66;5064729;28;20048;-73
2022/10/16 06:36:14;;;;;;;11.18;5.32;;;;;;;21.10;34.71;100442.47;5060225;28;20068;-73
2022/10/16 06:38:45;;;;;;;10.70;6.07;;;;;;;21.09;34.92;100448.59;5057209;28;20075;-73
2022/10/16 06:41:15;;;;;;;8.05;5.13;;;;;;;21.06;35.33;100438.16;5063414;28;20041;-74
2022/10/16 06:43:44;;;;;;;9.65;5.60;;;;;;;21.03;35.12;100448.75;5060554;28;20056;-74
2022/10/16 06:46:14;;;;;;;11.40;5.93;;;;;;;21.00;35.36;100446.16;5064349;28;20044;-73
2022/10/16 06:48:43;;;;;;;8.75;5.10;;;;;;;20.99;35.40;100452.31;5070432;28;20091;-74
2022/10/16 06:51:13;;;;;;;9.82;5.45;;;;;;;20.98;35.89;100440.06;5072766;28;20048;-74
2022/10/16 06:53:45;;;;;;;9.25;5.22;;;;;;;20.98;35.27;100445.34;5068565;28;20049;-74
2022/10/16 06:56:15;;;;;;;11.02;5.47;;;;;;;21.00;35.44;100453.19;5070513;28;20052;-74
2022/10/16 06:58:44;;;;;;;9.15;5.53;;;;;;;20.98;35.63;100455.88;5066931;28;20048;-74
2022/10/16 07:01:13;;;;;;;15.00;5.25;;;;;;;20.98;35.91;100452.34;5066040;28;20063;-74
2022/10/16 07:03:44;;;;;;;8.63;5.45;;;;;;;20.97;35.62;100453.25;5064116;28;20044;-74
2022/10/16 07:06:13;;;;;;;9.57;5.10;;;;;;;20.95;34.89;100448.00;5059758;28;20048;-74
2022/10/16 07:08:45;;;;;;;8.93;4.80;;;;;;;20.93;35.46;100455.06;5065959;28;20551;-74
2022/10/16 07:11:16;;;;;;;11.67;4.90;;;;;;;20.91;35.36;100446.31;5067473;28;20048;-74
2022/10/16 07:13:45;;;;;;;8.52;5.43;;;;;;;20.88;35.49;100449.00;5066002;28;20562;-74
2022/10/16 07:16:15;;;;;;;10.85;5.68;;;;;;;20.84;35.82;100447.31;5070235;28;20061;-74
2022/10/16 07:18:45;;;;;;;7.35;5.43;;;;;;;20.82;35.99;100449.13;5057765;28;20052;-75
2022/10/16 07:21:16;;;;;;;9.50;4.90;;;;;;;20.83;35.64;100450.88;5061605;28;20049;-75
2022/10/16 07:23:46;;;;;;;12.13;6.05;;;;;;;20.88;35.67;100459.53;5066248;28;20114;-73
2022/10/16 07:26:15;;;;;;;11.57;5.35;;;;;;;20.91;35.47;100464.72;5068365;28;20509;-76
2022/10/16 07:28:45;;;;;;;9.63;5.28;;;;;;;20.99;35.29;100467.25;5054747;28;20079;-76
2022/10/16 07:31:17;;;;;;;8.90;5.35;;;;;;;21.03;35.13;100469.78;5053557;28;20049;-76
2022/10/16 07:33:47;;;;;;;8.30;5.22;;;;;;;21.06;35.18;100474.97;5059450;28;20628;-76
2022/10/16 07:36:16;;;;;;;8.85;5.05;;;;;;;21.10;34.94;100475.81;5063427;28;20068;-73
2022/10/16 07:38:47;;;;;;;9.60;5.05;;;;;;;21.11;35.22;100473.13;5066652;28;20063;-74
2022/10/16 07:41:18;;;;;;;8.68;4.75;;;;;;;21.13;34.94;100468.72;5071085;28;20044;-73
2022/10/16 07:43:48;;;;;;;6.25;4.72;;;;;;;21.13;35.33;100471.34;5068817;28;20049;-74
2022/10/16 07:46:18;;;;;;;11.38;5.25;;;;;;;21.12;35.27;100471.38;5063689;28;20040;-73
2022/10/16 07:48:47;;;;;;;10.75;5.45;;;;;;;21.08;35.11;100469.72;5069876;28;20048;-74
2022/10/16 07:51:18;;;;;;;8.70;4.95;;;;;;;21.01;35.14;100471.56;5053611;28;20049;-75
2022/10/16 07:53:49;;;;;;;8.45;5.05;;;;;;;20.99;35.40;100467.25;5063546;28;20049;-74
2022/10/16 07:56:18;;;;;;;7.68;5.03;;;;;;;20.92;35.00;100464.72;5072168;28;20048;-75
2022/10/16 07:58:49;;;;;;;9.60;5.00;;;;;;;20.88;35.59;100467.44;5056720;28;20505;-73
2022/10/16 08:01:18;;;;;;;9.85;5.30;;;;;;;20.83;35.64;100474.53;5071117;28;20049;-73
2022/10/16 08:03:48;;;;;;;9.63;5.25;;;;;;;20.79;35.88;100465.81;5056720;28;20056;-74
2022/10/16 08:06:17;;;;;;;7.10;5.15;;;;;;;20.75;35.59;100474.63;5060210;28;20048;-74
2022/10/16 08:08:45;;;;;;;7.82;4.70;;;;;;;20.71;35.60;100463.31;5065258;28;20055;-74
2022/10/16 08:11:16;;;;;;;8.25;4.82;;;;;;;20.70;36.49;100477.34;5057750;28;20048;-73
2022/10/16 08:13:45;;;;;;;10.30;5.40;;;;;;;20.65;36.64;100475.72;5065659;28;20136;-73
2022/10/16 08:16:13;;;;;;;8.88;5.15;;;;;;;20.62;36.47;100474.00;5060587;28;20056;-74
2022/10/16 08:18:43;;;;;;;10.10;5.25;;;;;;;20.61;36.37;100468.75;5054197;28;20060;-74
2022/10/16 08:21:16;;;;;;;14.93;5.40;;;;;;;20.59;36.80;100474.06;5066673;28;20572;-73
2022/10/16 08:23:44;;;;;;;8.38;5.05;;;;;;;20.54;36.67;100481.09;5066121;28;20546;-74
2022/10/16 08:26:15;;;;;;;7.95;4.88;;;;;;;20.53;37.05;100476.75;5052081;28;20077;-74
2022/10/16 08:28:52;;;;;;;7.53;4.75;;;;;;;20.44;37.23;100463.75;5068925;28;20097;-73
2022/10/16 08:31:21;;;;;;;7.28;4.57;;;;;;;20.47;37.19;100474.19;5067663;28;20090;-74
2022/10/16 08:33:49;;;;;;;8.95;4.97;;;;;;;20.47;36.94;100479.47;5054223;28;20045;-75
2022/10/16 08:36:18;;;;;;;10.77;5.38;;;;;;;20.47;37.27;100468.94;5060493;28;20041;-75
2022/10/16 08:38:50;;;;;;;10.77;5.03;;;;;;;20.45;37.64;100468.97;5075086;28;20389;-75
2022/10/16 08:41:50;;;;;;;10.30;5.00;;;;;;;20.45;37.94;100471.59;5065874;28;20095;-75
2022/10/16 08:44:38;;;;;;;6.35;4.43;;;;;;;20.48;37.05;100463.69;5068751;28;20543;-74
2022/10/16 08:47:18;;;;;;;8.43;4.75;;;;;;;20.56;36.22;100462.69;5057714;28;20085;-75
2022/10/16 08:49:58;;;;;;;6.63;4.53;;;;;;;20.69;35.89;100459.84;5063994;28;20044;-75
2022/10/16 08:52:31;;;;;;;9.00;4.72;;;;;;;20.81;35.65;100460.53;5062954;28;20482;-76
2022/10/16 08:55:00;;;;;;;9.85;4.72;;;;;;;20.90;35.45;100455.97;5062530;28;20045;-74
2022/10/16 08:57:32;;;;;;;7.18;4.72;;;;;;;21.00;35.29;100464.56;5033457;28;20100;-76
2022/10/16 09:00:07;;;;;;;10.10;4.82;;;;;;;21.06;35.13;100458.34;5040421;28;20688;-75
2022/10/16 09:02:40;;;;;;;9.65;4.80;;;;;;;21.13;35.18;100459.97;5045746;28;20119;-74
2022/10/16 09:05:25;;;;;;;7.88;4.40;;;;;;;21.16;34.86;100454.63;5045473;28;20576;-75
2022/10/16 09:08:03;;;;;;;8.95;4.80;;;;;;;21.20;34.66;100453.69;5038442;28;20140;-75
2022/10/16 09:10:44;;;;;;;11.40;5.63;;;;;;;21.27;34.69;100463.19;5043256;28;20044;-73
2022/10/16 09:13:24;;;;;;;7.65;4.68;;;;;;;21.30;34.96;100460.50;5029763;28;20049;-76
2022/10/16 09:16:00;;;;;;;6.50;4.78;;;;;;;21.34;34.57;100458.66;5032884;28;20127;-74
2022/10/16 09:18:37;;;;;;;8.00;4.43;;;;;;;21.38;34.27;100459.50;5046272;28;20052;-75
2022/10/16 09:21:14;;;;;;;6.55;4.10;;;;;;;21.41;34.61;100460.31;5046885;28;20354;-73
2022/10/16 09:23:43;;;;;;;9.30;4.72;;;;;;;21.46;34.55;100462.84;5040812;28;20041;-73
2022/10/16 09:26:15;;;;;;;9.00;4.68;;;;;;;21.49;34.11;100462.81;5040761;28;20517;-75
2022/10/16 09:28:46;;;;;;;12.32;5.85;;;;;;;21.52;34.16;100474.13;5047930;28;20045;-75
2022/10/16 09:31:20;;;;;;;11.85;4.88;;;;;;;21.54;34.09;100461.81;5047841;28;20045;-76
2022/10/16 09:33:54;;;;;;;11.23;3.97;;;;;;;21.59;33.97;100474.00;5047895;28;20049;-75
2022/10/16 09:36:25;;;;;;;7.03;4.30;;;;;;;21.61;33.86;100473.09;5032452;28;20066;-75
2022/10/16 09:39:04;;;;;;;6.60;4.55;;;;;;;21.62;34.03;100469.53;5047822;28;20495;-77
2022/10/16 09:41:35;;;;;;;8.25;4.50;;;;;;;21.63;34.02;100470.44;5044430;28;20655;-75
2022/10/16 09:44:08;;;;;;;8.85;4.38;;;;;;;21.63;33.87;100471.28;5042403;28;20049;-76
2022/10/16 09:46:37;;;;;;;;;;;;;;;21.63;34.09;100470.44;5049713;28;20407;-76
2022/10/16 09:49:20;;;;;;;6.78;4.03;;;;;;;21.62;33.78;100466.91;5043592;28;19925;-76
2022/10/16 09:51:49;;;;;;;7.40;4.40;;;;;;;21.62;33.94;100466.91;5047215;28;20053;-77
2022/10/16 09:54:19;;;;;;;7.32;4.80;;;;;;;21.61;33.79;100467.81;5048215;28;20188;-77
2022/10/16 09:56:51;;;;;;;9.32;4.53;;;;;;;21.63;33.96;100465.16;5044401;28;20061;-76
2022/10/16 09:59:30;;;;;;;9.00;4.03;;;;;;;21.62;34.04;100466.03;5048345;28;20049;-78
2022/10/16 10:02:03;;;;;;;9.80;4.18;;;;;;;21.62;34.02;100468.69;5044321;28;20120;-76
2022/10/16 10:04:40;;;;;;;;;;;;;;;21.62;34.01;100468.69;5040226;28;20042;-76
2022/10/16 10:07:20;;;;;;;8.23;4.03;;;;;;;21.62;33.83;100468.69;5042941;28;19927;-78
2022/10/16 10:09:49;;;;;;;6.25;3.92;;;;;;;21.63;33.86;100467.78;5039438;28;20607;-77
2022/10/16 10:12:22;;;;;;;6.63;4.22;;;;;;;21.62;33.69;100468.69;5042558;28;20053;-76
2022/10/16 10:14:53;;;;;;;8.35;3.70;;;;;;;21.61;33.94;100462.56;5041184;28;20068;-77
2022/10/16 10:17:24;;;;;;;6.13;4.25;;;;;;;21.60;33.89;100466.09;5037937;28;20495;-76
2022/10/16 10:19:55;;;;;;;10.80;4.10;;;;;;;21.59;33.77;100468.75;5045918;28;20045;-77
2022/10/16 10:22:40;;;;;;;6.70;4.00;;;;;;;21.59;34.07;100460.84;5047587;28;20132;-75
2022/10/16 10:25:23;;;;;;;6.57;4.10;;;;;;;21.58;34.16;100460.00;5038336;28;20128;-79
2022/10/16 10:28:06;;;;;;;9.35;4.35;;;;;;;21.58;33.82;100470.53;5032603;28;20492;-78
2022/10/16 10:30:43;;;;;;;7.80;4.32;;;;;;;21.55;34.11;100465.31;5045555;28;20057;-76
2022/10/16 10:33:23;;;;;;;7.75;4.55;;;;;;;21.55;34.00;100467.94;5048108;28;20133;-76
2022/10/16 10:35:59;;;;;;;8.63;4.22;;;;;;;21.54;34.24;100461.81;5043645;28;20132;-77
2022/10/16 10:38:41;;;;;;;10.38;4.05;;;;;;;21.49;34.21;100453.16;5045747;28;20404;-76
2022/10/16 10:41:34;;;;;;;10.70;4.63;;;;;;;21.49;33.98;100461.03;5039665;28;20048;-76
2022/10/16 10:44:12;;;;;;;6.57;4.30;;;;;;;21.49;33.93;100462.81;5043444;28;20045;-75
2022/10/16 10:46:51;;;;;;;7.53;4.43;;;;;;;21.47;34.19;100454.94;5047951;28;20041;-77
2022/10/16 10:49:36;;;;;;;6.43;3.95;;;;;;;21.45;34.03;100456.72;5037357;28;20399;-75
2022/10/16 10:52:25;;;;;;;11.60;3.78;;;;;;;21.44;34.15;100448.84;5046726;28;20080;-75
2022/10/16 10:55:03;;;;;;;7.45;3.95;;;;;;;21.44;34.21;100452.38;5043294;28;20053;-76
2022/10/16 10:57:37;;;;;;;8.68;3.75;;;;;;;21.42;34.15;100454.16;5036695;28;20061;-79
2022/10/16 11:00:21;;;;;;;8.20;4.35;;;;;;;21.42;34.16;100450.69;5047828;28;20931;-78
2022/10/16 11:03:02;;;;;;;8.75;4.50;;;;;;;21.40;34.46;100448.06;5047842;28;20552;-75
2022/10/16 11:05:41;;;;;;;8.55;4.20;;;;;;;21.39;34.39;100445.41;5030477;28;21054;-77
2022/10/16 11:08:17;;;;;;;11.50;4.50;;;;;;;21.40;34.29;100448.06;5037536;28;20057;-76
2022/10/16 11:10:51;;;;;;;8.95;3.97;;;;;;;21.40;34.26;100441.91;5049899;28;20046;-79
2022/10/16 11:13:38;;;;;;;8.00;4.65;;;;;;;21.38;34.22;100444.56;5051071;28;20053;-77
2022/10/16 11:16:24;;;;;;;9.40;4.13;;;;;;;21.38;34.18;100449.81;5049316;28;20057;-76
2022/10/16 11:19:00;;;;;;;9.85;4.63;;;;;;;21.37;34.32;100447.22;5050000;28;20049;-78
2022/10/16 11:21:37;;;;;;;10.50;4.28;;;;;;;21.37;34.27;100450.72;5047145;28;20052;-76
2022/10/16 11:24:16;;;;;;;9.13;4.07;;;;;;;21.36;34.23;100451.63;5044839;28;20845;-77
2022/10/16 11:26:48;;;;;;;9.88;4.20;;;;;;;21.36;34.57;100454.25;5046833;28;20053;-80
2022/10/16 11:29:24;;;;;;;11.95;4.63;;;;;;;21.34;34.27;100453.41;5048042;28;20057;-77
2022/10/16 11:31:57;;;;;;;9.20;4.18;;;;;;;21.34;34.41;100458.66;5049629;28;20621;-77
2022/10/16 11:34:33;;;;;;;7.40;4.20;;;;;;;21.33;34.53;100463.06;5054110;28;20080;-76
2022/10/16 11:37:10;;;;;;;9.32;4.03;;;;;;;21.31;34.34;100458.75;5045344;28;20045;-76
2022/10/16 11:39:42;;;;;;;14.40;5.57;;;;;;;21.31;34.47;100469.28;5041654;28;20049;-76
2022/10/16 11:42:15;;;;;;;5.55;3.80;;;;;;;21.31;34.71;100469.28;5046877;28;20513;-76
2022/10/16 11:44:53;;;;;;;8.75;4.45;;;;;;;21.30;34.53;100464.88;5049558;28;20044;-76
2022/10/16 11:47:32;;;;;;;7.70;4.25;;;;;;;21.30;34.46;100463.16;5049079;28;20048;-77